createdAt,value
2022-12-14T00:00:55.360Z,-4.40
2022-12-14T00:05:57.234Z,-4.40
2022-12-14T00:10:59.113Z,-4.40
2022-12-14T00:16:06.280Z,-4.40
2022-12-14T00:21:11.164Z,-4.40
2022-12-14T00:26:13.852Z,-4.50
2022-12-14T00:31:16.358Z,-4.40
2022-12-14T00:36:18.399Z,-4.40
2022-12-14T00:41:20.240Z,-4.30
2022-12-14T00:46:22.153Z,-4.30
2022-12-14T00:51:24.086Z,-4.40
2022-12-14T00:56:25.898Z,-4.40
2022-12-14T01:01:27.817Z,-4.40
2022-12-14T01:06:29.748Z,-4.40
2022-12-14T01:11:32.311Z,-4.40
2022-12-14T01:16:34.559Z,-4.40
2022-12-14T01:21:36.366Z,-4.30
2022-12-14T01:26:39.419Z,-4.20
2022-12-14T01:31:41.278Z,-4.20
2022-12-14T01:36:43.195Z,-4.20
2022-12-14T01:41:54.474Z,-4.10
2022-12-14T01:47:08.837Z,-4.10
2022-12-14T01:52:23.197Z,-4.00
2022-12-14T01:57:29.219Z,-4.00
2022-12-14T02:02:31.647Z,-3.90
2022-12-14T02:07:35.915Z,-3.90
2022-12-14T02:12:42.936Z,-3.70
2022-12-14T02:17:46.140Z,-3.60
2022-12-14T02:23:25.538Z,-3.60
2022-12-14T02:29:01.478Z,-3.60
2022-12-14T02:34:19.531Z,-3.60
2022-12-14T02:39:31.195Z,-3.60
2022-12-14T02:44:44.815Z,-3.50
2022-12-14T02:50:16.210Z,-3.50
2022-12-14T02:55:22.487Z,-3.50
2022-12-14T03:00:24.938Z,-3.50
2022-12-14T03:05:26.811Z,-3.40
2022-12-14T03:10:46.128Z,-3.40
2022-12-14T03:15:55.529Z,-3.40
2022-12-14T03:20:57.665Z,-3.30
2022-12-14T03:26:14.568Z,-3.20
2022-12-14T03:31:24.155Z,-3.20
2022-12-14T03:36:32.202Z,-3.20
2022-12-14T03:41:50.808Z,-3.10
2022-12-14T03:47:11.413Z,-3.10
2022-12-14T03:52:23.724Z,-3.00
2022-12-14T03:57:34.183Z,-3.00
2022-12-14T04:02:49.060Z,-2.90
2022-12-14T04:08:01.486Z,-2.90
2022-12-14T04:13:26.530Z,-2.80
2022-12-14T04:18:58.983Z,-2.80
2022-12-14T04:24:32.654Z,-2.70
2022-12-14T04:29:53.750Z,-2.70
2022-12-14T04:35:11.137Z,-2.60
2022-12-14T04:40:17.654Z,-2.50
2022-12-14T04:45:24.948Z,-2.50
2022-12-14T04:50:34.719Z,-2.40
2022-12-14T04:55:55.009Z,-2.40
2022-12-14T05:01:12.308Z,-2.30
2022-12-14T05:06:35.446Z,-2.30
2022-12-14T05:11:54.381Z,-2.30
2022-12-14T05:16:57.005Z,-2.20
2022-12-14T05:22:07.459Z,-2.10
2022-12-14T05:27:09.290Z,-2.10
2022-12-14T05:32:12.651Z,-2.10
2022-12-14T05:37:18.216Z,-2.10
2022-12-14T05:42:20.449Z,-2.10
2022-12-14T05:47:22.390Z,-2.10
2022-12-14T05:52:25.805Z,-2.10
2022-12-14T05:57:27.660Z,-2.10
2022-12-14T06:02:29.556Z,-2.10
2022-12-14T06:07:31.432Z,-2.20
2022-12-14T06:12:33.404Z,-2.20
2022-12-14T06:17:36.373Z,-2.20
2022-12-14T06:22:42.763Z,-2.20
2022-12-14T06:27:47.676Z,-2.20
2022-12-14T06:32:49.482Z,-2.20
2022-12-14T06:37:51.349Z,-2.10
2022-12-14T06:42:53.146Z,-2.20
2022-12-14T06:47:55.043Z,-2.20
2022-12-14T06:52:57.060Z,-2.20
2022-12-14T06:57:58.974Z,-2.20
2022-12-14T07:03:00.963Z,-2.20
2022-12-14T07:08:03.558Z,-2.10
2022-12-14T07:13:05.367Z,-2.20
2022-12-14T07:18:07.218Z,-2.20
2022-12-14T07:23:09.045Z,-2.10
2022-12-14T07:28:10.873Z,-2.10
2022-12-14T07:33:12.838Z,-2.10
2022-12-14T07:38:14.710Z,-2.10
2022-12-14T07:43:18.813Z,-2.10
2022-12-14T07:48:20.606Z,-2.10
2022-12-14T07:53:22.407Z,-2.10
2022-12-14T07:58:25.263Z,-2.20
2022-12-14T08:03:27.616Z,-2.10
2022-12-14T08:08:29.608Z,-2.10
2022-12-14T08:13:32.155Z,-2.10
2022-12-14T08:18:34.436Z,-2.10
2022-12-14T08:23:36.678Z,-2.10
2022-12-14T08:28:38.552Z,-2.10
2022-12-14T08:33:41.536Z,-2.10
2022-12-14T08:38:43.706Z,-2.00
2022-12-14T08:43:49.755Z,-2.00
2022-12-14T08:48:53.659Z,-2.00
2022-12-14T08:53:55.759Z,-1.90
2022-12-14T08:58:57.777Z,-1.90
2022-12-14T09:04:07.731Z,-1.80
2022-12-14T09:09:16.116Z,-1.80
2022-12-14T09:14:18.579Z,-1.70
2022-12-14T09:19:20.393Z,-1.60
2022-12-14T09:24:24.482Z,-1.70
2022-12-14T09:29:27.170Z,-1.60
2022-12-14T09:34:29.488Z,-1.50
2022-12-14T09:39:31.921Z,-1.50
2022-12-14T09:44:49.714Z,-1.50
2022-12-14T09:50:04.410Z,-1.40
2022-12-14T09:55:17.590Z,-1.40
2022-12-14T10:00:20.071Z,-1.40
2022-12-14T10:05:49.106Z,-1.40
2022-12-14T10:11:29.973Z,-1.40
2022-12-14T10:16:52.301Z,-1.40
2022-12-14T10:22:00.766Z,-1.40
2022-12-14T10:27:03.439Z,-1.30
2022-12-14T10:32:05.474Z,-1.30
2022-12-14T10:37:31.978Z,-1.30
2022-12-14T10:42:49.437Z,-1.30
2022-12-14T10:47:57.046Z,-1.30
2022-12-14T10:52:59.784Z,-1.20
2022-12-14T10:58:01.621Z,-1.20
2022-12-14T11:03:09.361Z,-1.20
2022-12-14T11:08:38.247Z,-1.20
2022-12-14T11:13:40.084Z,-1.20
2022-12-14T11:18:41.961Z,-1.10
2022-12-14T11:23:48.015Z,-1.10
2022-12-14T11:28:51.410Z,-1.10
2022-12-14T11:33:55.154Z,-1.10
2022-12-14T11:39:15.134Z,-1.20
2022-12-14T11:44:16.978Z,-1.10
2022-12-14T11:49:37.606Z,-1.20
2022-12-14T11:54:49.739Z,-1.10
2022-12-14T11:59:55.294Z,-1.10
2022-12-14T12:05:03.187Z,-1.10
2022-12-14T12:10:13.767Z,-1.10
2022-12-14T12:15:22.721Z,-1.10
2022-12-14T12:20:36.187Z,-1.00
2022-12-14T12:25:38.954Z,-1.00
2022-12-14T12:30:43.453Z,-1.00
2022-12-14T12:35:50.290Z,-1.00
2022-12-14T12:41:21.467Z,-1.00
2022-12-14T12:46:28.894Z,-1.00
2022-12-14T12:51:39.053Z,-0.90
2022-12-14T12:56:51.736Z,-1.00
2022-12-14T13:01:55.614Z,-1.00
2022-12-14T13:07:02.810Z,-0.90
2022-12-14T13:12:07.055Z,-1.00
2022-12-14T13:17:26.312Z,-1.00
2022-12-14T13:22:32.596Z,-1.00
2022-12-14T13:27:49.661Z,-1.00
2022-12-14T13:32:54.232Z,-1.00
2022-12-14T13:38:43.550Z,-0.90
2022-12-14T13:44:09.248Z,-0.90
2022-12-14T13:49:22.707Z,-0.90
2022-12-14T13:54:28.759Z,-0.90
2022-12-14T13:59:33.547Z,-1.00
2022-12-14T14:04:38.160Z,-1.00
2022-12-14T14:09:45.920Z,-1.00
2022-12-14T14:14:58.686Z,-0.90
2022-12-14T14:20:02.833Z,-0.90
2022-12-14T14:25:33.582Z,-0.90
2022-12-14T14:30:43.165Z,-0.90
2022-12-14T14:35:45.058Z,-1.00
2022-12-14T14:41:15.989Z,-0.90
2022-12-14T14:46:22.898Z,-1.00
2022-12-14T14:51:28.645Z,-1.00
2022-12-14T14:56:30.398Z,-1.00
2022-12-14T15:01:32.304Z,-1.00
2022-12-14T15:06:42.359Z,-0.90
2022-12-14T15:11:53.640Z,-0.90
2022-12-14T15:16:55.467Z,-0.90
2022-12-14T15:22:08.643Z,-0.90
2022-12-14T15:27:32.861Z,-0.90
2022-12-14T15:32:35.317Z,-0.80
2022-12-14T15:37:58.060Z,-0.80
2022-12-14T15:43:16.518Z,-0.90
2022-12-14T15:48:30.327Z,-0.80
2022-12-14T15:53:32.908Z,-0.80
2022-12-14T15:58:35.859Z,-0.80
2022-12-14T16:03:41.031Z,-0.80
2022-12-14T16:08:50.081Z,-0.70
2022-12-14T16:13:51.964Z,-0.70
2022-12-14T16:18:54.261Z,-0.70
2022-12-14T16:24:21.715Z,-0.70
2022-12-14T16:29:27.631Z,-0.70
2022-12-14T16:34:29.922Z,-0.60
2022-12-14T16:39:38.911Z,-0.60
2022-12-14T16:44:40.931Z,-0.60
2022-12-14T16:49:56.706Z,-0.60
2022-12-14T16:55:14.919Z,-0.60
2022-12-14T17:00:24.862Z,-0.50
2022-12-14T17:05:35.617Z,-0.50
2022-12-14T17:10:38.812Z,-0.40
2022-12-14T17:16:03.774Z,-0.40
2022-12-14T17:21:06.805Z,-0.40
2022-12-14T17:26:17.413Z,-0.40
2022-12-14T17:31:20.988Z,-0.40
2022-12-14T17:36:22.921Z,-0.30
2022-12-14T17:41:26.324Z,-0.30
2022-12-14T17:46:30.905Z,-0.30
2022-12-14T17:51:41.158Z,-0.30
2022-12-14T17:56:44.119Z,-0.30
2022-12-14T18:01:46.431Z,-0.30
2022-12-14T18:06:51.595Z,-0.20
2022-12-14T18:12:22.057Z,-0.20
2022-12-14T18:17:17.845Z,-0.20
2022-12-14T18:22:19.832Z,-0.10
2022-12-14T18:27:21.939Z,-0.10
2022-12-14T18:32:24.509Z,-0.10
2022-12-14T18:37:32.573Z,-0.20
2022-12-14T18:42:34.689Z,-0.10
2022-12-14T18:47:43.951Z,-0.10
2022-12-14T18:52:46.987Z,-0.10
2022-12-14T18:57:51.286Z,-0.10
2022-12-14T19:02:57.257Z,-0.10
2022-12-14T19:08:00.024Z,0.00
2022-12-14T19:13:01.944Z,0.00
2022-12-14T19:18:03.762Z,-0.10
2022-12-14T19:23:06.020Z,0.00
2022-12-14T19:33:30.398Z,0.00
2022-12-14T19:38:35.040Z,0.00
2022-12-14T19:43:37.167Z,0.00
2022-12-14T19:48:39.454Z,0.00
2022-12-14T19:53:45.363Z,0.00
2022-12-14T19:58:47.975Z,0.00
2022-12-14T20:03:52.706Z,0.00
2022-12-14T20:08:58.839Z,0.00
2022-12-14T20:14:03.166Z,0.00
2022-12-14T20:19:06.807Z,0.00
2022-12-14T20:24:10.943Z,0.00
2022-12-14T20:29:12.766Z,0.00
2022-12-14T20:34:15.187Z,0.00
2022-12-14T20:39:17.183Z,0.00
2022-12-14T20:44:19.220Z,-0.10
2022-12-14T20:49:21.444Z,-0.10
2022-12-14T20:54:23.683Z,-0.10
2022-12-14T20:59:26.719Z,-0.10
2022-12-14T21:04:28.849Z,-0.10
2022-12-14T21:09:30.659Z,-0.10
2022-12-14T21:14:34.730Z,-0.10
2022-12-14T21:19:36.709Z,-0.10
2022-12-14T21:30:00.787Z,0.00
2022-12-14T21:35:03.320Z,0.00
2022-12-14T21:40:05.849Z,0.00
2022-12-14T21:45:09.310Z,0.00
2022-12-14T21:50:11.198Z,0.00
2022-12-14T21:55:13.222Z,0.00
2022-12-14T22:00:15.517Z,0.00
2022-12-14T22:05:20.385Z,0.00
2022-12-14T22:10:25.108Z,0.00
2022-12-14T22:15:27.253Z,0.00
2022-12-14T22:20:29.080Z,0.00
2022-12-14T22:25:32.529Z,0.00
2022-12-14T22:30:34.666Z,0.00
2022-12-14T22:35:36.616Z,0.00
2022-12-14T22:40:38.532Z,0.00
2022-12-14T22:45:40.606Z,0.00
2022-12-14T22:50:42.472Z,-0.10
2022-12-14T22:55:46.309Z,0.00
2022-12-14T23:00:54.023Z,-0.10
2022-12-14T23:06:00.349Z,-0.10
2022-12-14T23:11:22.491Z,-0.10
2022-12-14T23:16:42.988Z,-0.10
2022-12-14T23:22:03.493Z,-0.10
2022-12-14T23:27:23.967Z,-0.10
2022-12-14T23:32:44.497Z,-0.10
2022-12-14T23:38:04.963Z,-0.20
2022-12-14T23:43:28.806Z,-0.20
2022-12-14T23:48:49.381Z,-0.20
2022-12-14T23:54:09.821Z,-0.20
2022-12-14T23:59:32.578Z,-0.20
